createdAt,value
2022-08-26T00:02:30.764Z,46.56
2022-08-26T00:07:37.910Z,46.35
2022-08-26T00:12:45.091Z,46.33
2022-08-26T00:17:52.368Z,46.29
2022-08-26T00:22:59.580Z,46.12
2022-08-26T00:28:06.794Z,45.80
2022-08-26T00:33:14.051Z,45.50
2022-08-26T00:38:21.291Z,45.40
2022-08-26T00:43:28.492Z,45.61
2022-08-26T00:48:35.691Z,45.83
2022-08-26T00:53:42.848Z,45.89
2022-08-26T00:58:50.004Z,45.67
2022-08-26T01:03:57.219Z,45.36
2022-08-26T01:09:04.430Z,45.17
2022-08-26T01:14:11.602Z,45.19
2022-08-26T01:19:18.765Z,44.95
2022-08-26T01:24:25.983Z,44.75
2022-08-26T01:29:33.154Z,44.74
2022-08-26T01:34:40.349Z,44.73
2022-08-26T01:39:47.590Z,44.56
2022-08-26T01:44:54.706Z,44.57
2022-08-26T01:50:02.831Z,44.77
2022-08-26T01:55:09.112Z,44.90
2022-08-26T02:00:16.316Z,44.90
2022-08-26T02:05:23.450Z,44.98
2022-08-26T02:10:30.642Z,45.10
2022-08-26T02:15:37.849Z,44.73
2022-08-26T02:20:45.105Z,44.75
2022-08-26T02:25:55.102Z,44.85
2022-08-26T02:31:02.706Z,44.82
2022-08-26T02:36:09.487Z,44.84
2022-08-26T02:41:16.739Z,44.85
2022-08-26T02:46:27.868Z,44.85
2022-08-26T02:51:31.264Z,45.14
2022-08-26T02:56:38.443Z,45.00
2022-08-26T03:01:45.680Z,44.97
2022-08-26T03:06:53.139Z,44.80
2022-08-26T03:12:00.183Z,44.65
2022-08-26T03:17:07.370Z,44.72
2022-08-26T03:22:14.705Z,45.09
2022-08-26T03:27:21.856Z,44.82
2022-08-26T03:32:29.043Z,44.81
2022-08-26T03:37:36.289Z,44.75
2022-08-26T03:42:45.420Z,44.68
2022-08-26T03:47:51.754Z,44.76
2022-08-26T03:52:58.986Z,44.74
2022-08-26T03:58:06.258Z,44.79
2022-08-26T04:03:18.632Z,45.19
2022-08-26T04:08:22.670Z,45.02
2022-08-26T04:13:29.937Z,44.97
2022-08-26T04:18:37.370Z,45.10
2022-08-26T04:23:47.511Z,45.03
2022-08-26T04:28:53.136Z,45.12
2022-08-26T04:34:00.367Z,45.21
2022-08-26T04:39:07.628Z,45.12
2022-08-26T04:44:14.921Z,45.25
2022-08-26T04:49:22.185Z,45.47
2022-08-26T04:54:29.416Z,45.48
2022-08-26T04:59:39.336Z,45.51
2022-08-26T05:04:43.817Z,45.72
2022-08-26T05:09:51.081Z,45.84
2022-08-26T05:14:58.383Z,46.00
2022-08-26T05:20:05.536Z,46.07
2022-08-26T05:25:12.739Z,46.73
2022-08-26T05:30:19.906Z,46.16
2022-08-26T05:35:27.104Z,46.54
2022-08-26T05:40:34.345Z,47.31
2022-08-26T05:45:45.820Z,47.57
2022-08-26T05:50:48.699Z,47.77
2022-08-26T05:55:55.848Z,48.00
2022-08-26T06:01:03.225Z,48.05
2022-08-26T06:06:10.594Z,48.61
2022-08-26T06:11:18.600Z,49.01
2022-08-26T06:16:24.897Z,49.77
2022-08-26T06:21:32.070Z,48.68
2022-08-26T06:26:39.247Z,48.53
2022-08-26T06:31:46.502Z,48.37
2022-08-26T06:36:53.665Z,48.18
2022-08-26T06:42:00.912Z,47.99
2022-08-26T06:47:08.166Z,47.96
2022-08-26T06:52:17.982Z,47.49
2022-08-26T06:57:22.668Z,47.48
2022-08-26T07:02:29.906Z,47.35
2022-08-26T07:07:37.107Z,47.09
2022-08-26T07:12:47.266Z,46.74
2022-08-26T07:17:51.461Z,46.86
2022-08-26T07:22:58.656Z,46.69
2022-08-26T07:28:05.861Z,46.49
2022-08-26T07:33:13.106Z,46.40
2022-08-26T07:38:20.306Z,46.31
2022-08-26T07:43:27.535Z,46.06
2022-08-26T07:48:34.788Z,45.91
2022-08-26T07:53:42.014Z,46.08
2022-08-26T07:58:51.885Z,45.88
2022-08-26T08:03:56.528Z,45.89
2022-08-26T08:09:03.717Z,45.88
2022-08-26T08:14:11.899Z,45.79
2022-08-26T08:19:18.195Z,45.94
2022-08-26T08:24:25.372Z,46.06
2022-08-26T08:29:32.598Z,45.89
2022-08-26T08:39:49.214Z,45.88
2022-08-26T08:44:56.227Z,45.80
2022-08-26T08:50:04.035Z,45.75
2022-08-26T08:55:14.826Z,45.57
2022-08-26T09:00:18.447Z,45.53
2022-08-26T09:05:25.654Z,45.12
2022-08-26T09:10:32.983Z,44.82
2022-08-26T09:15:40.146Z,45.23
2022-08-26T09:20:47.320Z,45.30
2022-08-26T09:31:01.755Z,45.48
2022-08-26T09:36:08.911Z,44.93
2022-08-26T09:41:16.125Z,45.29
2022-08-26T09:46:23.402Z,45.07
2022-08-26T09:51:30.567Z,45.00
2022-08-26T09:56:37.737Z,45.23
2022-08-26T10:01:45.354Z,45.01
2022-08-26T10:06:52.120Z,44.99
2022-08-26T10:11:59.309Z,45.53
2022-08-26T10:17:06.955Z,44.84
2022-08-26T10:22:13.676Z,44.83
2022-08-26T10:27:20.845Z,45.02
2022-08-26T10:32:28.071Z,45.31
2022-08-26T10:37:35.226Z,46.32
2022-08-26T10:42:42.408Z,46.62
2022-08-26T10:47:49.639Z,47.15
2022-08-26T10:52:56.867Z,46.79
2022-08-26T10:58:05.010Z,48.18
2022-08-26T11:03:21.644Z,47.02
2022-08-26T11:08:18.521Z,47.10
2022-08-26T11:13:25.766Z,47.55
2022-08-26T11:18:32.994Z,46.00
2022-08-26T11:23:40.363Z,45.91
2022-08-26T11:28:47.374Z,46.09
2022-08-26T11:33:54.571Z,46.52
2022-08-26T11:39:02.780Z,46.53
2022-08-26T11:44:09.041Z,46.23
2022-08-26T11:49:16.202Z,46.42
2022-08-26T11:54:32.901Z,46.62
2022-08-26T11:59:30.728Z,46.63
2022-08-26T12:04:38.019Z,45.96
2022-08-26T12:09:47.455Z,45.98
2022-08-26T12:14:54.664Z,45.95
2022-08-26T12:20:01.855Z,45.59
2022-08-26T12:25:09.012Z,45.42
2022-08-26T12:30:17.982Z,45.65
2022-08-26T12:35:23.403Z,45.91
2022-08-26T12:40:30.710Z,45.91
2022-08-26T12:45:37.789Z,45.77
2022-08-26T12:50:47.046Z,46.06
2022-08-26T12:55:54.255Z,45.85
2022-08-26T13:01:01.661Z,45.81
2022-08-26T13:06:08.717Z,45.88
2022-08-26T13:11:15.960Z,45.91
2022-08-26T13:16:23.274Z,45.97
2022-08-26T13:21:32.034Z,46.23
2022-08-26T13:26:37.582Z,46.36
2022-08-26T13:31:45.102Z,46.23
2022-08-26T13:36:52.050Z,46.23
2022-08-26T13:41:59.317Z,46.28
2022-08-26T13:47:06.512Z,46.22
2022-08-26T13:52:13.686Z,46.05
2022-08-26T13:57:21.566Z,46.08
2022-08-26T14:02:28.747Z,46.09
2022-08-26T14:07:35.944Z,46.13
2022-08-26T14:12:43.124Z,46.42
2022-08-26T14:17:50.321Z,46.71
2022-08-26T14:23:13.096Z,46.31
2022-08-26T14:28:04.722Z,46.33
2022-08-26T14:33:11.972Z,46.94
2022-08-26T14:38:19.156Z,46.96
2022-08-26T14:43:26.330Z,46.70
2022-08-26T14:48:33.519Z,46.96
2022-08-26T14:53:40.798Z,46.77
2022-08-26T14:58:48.017Z,46.80
2022-08-26T15:03:55.192Z,46.96
2022-08-26T15:09:02.519Z,46.86
2022-08-26T15:14:19.066Z,46.77
2022-08-26T15:19:16.828Z,46.84
2022-08-26T15:24:24.153Z,46.82
2022-08-26T15:29:31.405Z,46.89
2022-08-26T15:34:38.615Z,46.63
2022-08-26T15:39:45.882Z,46.58
2022-08-26T15:44:53.066Z,46.83
2022-08-26T15:50:01.376Z,46.63
2022-08-26T15:55:08.647Z,46.79
2022-08-26T16:00:15.838Z,46.78
2022-08-26T16:05:23.202Z,47.12
2022-08-26T16:10:30.418Z,47.31
2022-08-26T16:15:37.757Z,47.85
2022-08-26T16:20:44.894Z,48.43
2022-08-26T16:25:52.176Z,48.57
2022-08-26T16:30:59.491Z,48.50
2022-08-26T16:36:06.621Z,48.63
2022-08-26T16:41:13.799Z,48.77
2022-08-26T16:46:21.050Z,48.97
2022-08-26T16:51:28.279Z,48.90
2022-08-26T16:56:35.459Z,48.76
2022-08-26T17:01:42.691Z,47.55
2022-08-26T17:06:49.829Z,47.15
2022-08-26T17:11:57.021Z,44.21
2022-08-26T17:17:04.305Z,44.25
2022-08-26T17:22:11.503Z,43.16
2022-08-26T17:27:18.754Z,42.87
2022-08-26T17:32:26.553Z,42.84
2022-08-26T17:37:33.735Z,42.87
2022-08-26T17:42:41.048Z,42.87
2022-08-26T17:47:48.210Z,43.19
2022-08-26T17:52:55.410Z,43.68
2022-08-26T17:58:04.004Z,43.60
2022-08-26T18:03:10.016Z,43.53
2022-08-26T18:08:17.046Z,43.72
2022-08-26T18:13:24.229Z,45.00
2022-08-26T18:18:31.412Z,45.46
2022-08-26T18:23:41.718Z,45.22
2022-08-26T18:28:49.002Z,45.38
2022-08-26T18:33:56.181Z,45.67
2022-08-26T18:39:03.355Z,46.11
2022-08-26T18:44:13.669Z,45.77
2022-08-26T18:49:17.774Z,45.98
2022-08-26T18:54:25.075Z,46.01
2022-08-26T18:59:32.383Z,46.17
2022-08-26T19:04:39.794Z,46.61
2022-08-26T19:09:47.444Z,47.43
2022-08-26T19:14:54.825Z,47.52
2022-08-26T19:20:02.323Z,47.55
2022-08-26T19:25:09.939Z,46.86
2022-08-26T19:30:17.560Z,46.79
2022-08-26T19:35:25.088Z,46.84
2022-08-26T19:40:32.737Z,47.20
2022-08-26T19:45:40.187Z,47.25
2022-08-26T19:50:47.686Z,48.39
2022-08-26T19:55:55.198Z,48.77
2022-08-26T20:01:02.869Z,49.44
2022-08-26T20:06:10.431Z,49.38
2022-08-26T20:11:17.832Z,49.42
2022-08-26T20:16:25.336Z,49.72
2022-08-26T20:21:32.962Z,48.98
2022-08-26T20:26:40.474Z,49.12
2022-08-26T20:31:47.909Z,49.12
2022-08-26T20:36:55.730Z,49.40
2022-08-26T20:42:02.954Z,49.75
2022-08-26T20:47:10.231Z,49.34
2022-08-26T20:52:17.446Z,49.48
2022-08-26T20:57:24.706Z,49.30
2022-08-26T21:02:31.987Z,49.53
2022-08-26T21:07:39.224Z,49.70
2022-08-26T21:12:46.458Z,49.84
2022-08-26T21:17:53.649Z,49.72
2022-08-26T21:23:00.826Z,49.80
2022-08-26T21:28:08.126Z,49.74
2022-08-26T21:33:15.293Z,49.97
2022-08-26T21:38:22.476Z,49.92
2022-08-26T21:43:35.517Z,49.53
2022-08-26T21:48:36.867Z,49.46
2022-08-26T21:53:44.141Z,49.90
2022-08-26T21:58:52.469Z,50.07
2022-08-26T22:03:58.506Z,50.18
2022-08-26T22:09:05.696Z,50.20
2022-08-26T22:14:12.979Z,50.42
2022-08-26T22:19:20.273Z,50.43
2022-08-26T22:24:29.074Z,50.44
2022-08-26T22:29:36.368Z,49.83
2022-08-26T22:34:43.647Z,50.51
2022-08-26T22:39:50.941Z,50.81
2022-08-26T22:44:58.108Z,50.54
2022-08-26T22:50:05.326Z,49.74
2022-08-26T22:55:12.573Z,50.49
2022-08-26T23:00:19.768Z,50.71
2022-08-26T23:05:26.995Z,50.88
2022-08-26T23:10:34.229Z,50.44
2022-08-26T23:15:41.414Z,50.42
2022-08-26T23:20:49.307Z,50.12
2022-08-26T23:25:56.581Z,50.22
2022-08-26T23:31:03.773Z,50.15
2022-08-26T23:36:14.628Z,49.90
2022-08-26T23:41:18.141Z,50.15
2022-08-26T23:46:25.338Z,49.81
2022-08-26T23:51:32.617Z,50.19
2022-08-26T23:56:39.818Z,50.25
